createdAt,value
2019-04-30T00:01:48.527Z,9.60
2019-04-30T00:04:40.417Z,9.72
2019-04-30T00:07:10.149Z,9.69
2019-04-30T00:09:40.642Z,9.64
2019-04-30T00:12:10.203Z,9.67
2019-04-30T00:14:41.362Z,9.72
2019-04-30T00:17:10.738Z,9.84
2019-04-30T00:19:41.448Z,9.70
2019-04-30T00:22:10.772Z,9.66
2019-04-30T00:24:44.268Z,9.66
2019-04-30T00:27:10.929Z,9.74
2019-04-30T00:29:40.190Z,9.77
2019-04-30T00:32:09.391Z,9.87
2019-04-30T00:34:39.480Z,9.75
2019-04-30T00:37:13.965Z,9.77
2019-04-30T00:39:39.687Z,9.87
2019-04-30T00:42:09.110Z,9.82
2019-04-30T00:44:38.315Z,9.79
2019-04-30T00:47:08.456Z,9.73
2019-04-30T00:49:37.653Z,9.61
2019-04-30T00:52:06.835Z,9.69
2019-04-30T00:54:36.016Z,9.64
2019-04-30T00:57:07.653Z,9.54
2019-04-30T00:59:39.865Z,9.49
2019-04-30T01:02:30.800Z,9.48
2019-04-30T01:04:58.334Z,9.42
2019-04-30T01:07:28.193Z,9.45
2019-04-30T01:09:57.374Z,9.43
2019-04-30T01:12:29.649Z,9.54
2019-04-30T01:14:59.038Z,9.62
2019-04-30T01:17:29.952Z,9.47
2019-04-30T01:19:59.287Z,9.60
2019-04-30T01:22:32.783Z,9.55
2019-04-30T01:25:01.351Z,9.60
2019-04-30T01:27:30.723Z,9.57
2019-04-30T01:30:00.096Z,9.60
2019-04-30T01:32:29.400Z,9.63
2019-04-30T01:34:58.959Z,9.61
2019-04-30T01:37:29.624Z,9.52
2019-04-30T01:40:03.083Z,9.63
2019-04-30T01:42:30.204Z,9.64
2019-04-30T01:44:59.382Z,9.53
2019-04-30T01:47:30.798Z,9.45
2019-04-30T01:50:04.895Z,9.43
2019-04-30T01:52:51.058Z,9.44
2019-04-30T01:55:23.404Z,9.42
2019-04-30T01:58:05.918Z,9.37
2019-04-30T02:00:49.320Z,9.36
2019-04-30T02:03:19.354Z,9.41
2019-04-30T02:05:49.844Z,9.37
2019-04-30T02:08:19.589Z,9.40
2019-04-30T02:10:51.216Z,9.38
2019-04-30T02:13:19.734Z,9.35
2019-04-30T02:15:49.309Z,9.37
2019-04-30T02:18:19.693Z,9.34
2019-04-30T02:20:49.733Z,9.42
2019-04-30T02:23:19.722Z,9.32
2019-04-30T02:25:49.118Z,9.27
2019-04-30T02:28:19.075Z,9.28
2019-04-30T02:30:50.381Z,9.39
2019-04-30T02:33:21.021Z,9.43
2019-04-30T02:36:03.259Z,9.34
2019-04-30T02:38:33.711Z,9.28
2019-04-30T02:41:03.762Z,9.22
2019-04-30T02:43:33.870Z,9.20
2019-04-30T02:46:05.017Z,9.24
2019-04-30T02:48:36.339Z,9.19
2019-04-30T02:51:06.459Z,9.25
2019-04-30T02:54:09.911Z,9.30
2019-04-30T02:56:40.238Z,9.34
2019-04-30T02:59:11.284Z,9.30
2019-04-30T03:01:40.690Z,9.28
2019-04-30T03:04:10.245Z,9.28
2019-04-30T03:06:40.247Z,9.29
2019-04-30T03:09:10.601Z,9.30
2019-04-30T03:11:41.039Z,9.28
2019-04-30T03:14:10.916Z,9.18
2019-04-30T03:16:52.530Z,9.06
2019-04-30T03:19:42.604Z,9.03
2019-04-30T03:22:15.499Z,8.96
2019-04-30T03:24:44.787Z,9.05
2019-04-30T03:27:13.968Z,9.00
2019-04-30T03:29:43.134Z,9.02
2019-04-30T03:32:13.765Z,9.07
2019-04-30T03:34:43.245Z,9.10
2019-04-30T03:37:12.406Z,9.00
2019-04-30T03:39:41.556Z,9.02
2019-04-30T03:42:12.323Z,8.96
2019-04-30T03:44:41.535Z,8.95
2019-04-30T03:47:11.186Z,8.95
2019-04-30T03:49:40.547Z,9.01
2019-04-30T03:52:13.106Z,9.05
2019-04-30T03:54:41.080Z,9.01
2019-04-30T03:57:11.374Z,8.99
2019-04-30T03:59:40.675Z,8.97
2019-04-30T04:02:20.836Z,8.99
2019-04-30T04:04:54.298Z,9.02
2019-04-30T04:07:52.929Z,8.88
2019-04-30T04:10:33.279Z,8.86
2019-04-30T04:13:02.429Z,8.87
2019-04-30T04:15:33.077Z,8.69
2019-04-30T04:18:02.312Z,8.64
2019-04-30T04:20:34.164Z,8.62
2019-04-30T04:23:05.186Z,8.68
2019-04-30T04:25:34.481Z,8.87
2019-04-30T04:28:03.777Z,8.75
2019-04-30T04:30:32.935Z,8.80
2019-04-30T04:33:02.549Z,8.78
2019-04-30T04:35:31.703Z,8.92
2019-04-30T04:38:00.968Z,8.74
2019-04-30T04:40:30.462Z,8.76
2019-04-30T04:43:00.245Z,8.73
2019-04-30T04:45:30.610Z,8.71
2019-04-30T04:48:00.352Z,8.72
2019-04-30T04:50:30.189Z,8.80
2019-04-30T04:52:59.815Z,8.76
2019-04-30T04:55:30.174Z,8.83
2019-04-30T04:57:59.914Z,8.91
2019-04-30T05:00:29.539Z,8.93
2019-04-30T05:03:04.426Z,8.97
2019-04-30T05:05:33.665Z,9.10
2019-04-30T05:08:02.831Z,8.99
2019-04-30T05:10:32.013Z,8.98
2019-04-30T05:13:01.757Z,8.91
2019-04-30T05:15:31.013Z,8.92
2019-04-30T05:18:00.172Z,8.98
2019-04-30T05:20:29.382Z,9.23
2019-04-30T05:22:58.643Z,9.30
2019-04-30T05:25:29.394Z,9.27
2019-04-30T05:28:00.148Z,9.42
2019-04-30T05:30:29.647Z,9.39
2019-04-30T05:32:58.954Z,9.59
2019-04-30T05:35:28.422Z,9.64
2019-04-30T05:37:59.330Z,9.45
2019-04-30T05:40:28.796Z,9.67
2019-04-30T05:42:58.125Z,9.71
2019-04-30T05:45:28.947Z,9.82
2019-04-30T05:47:58.751Z,9.49
2019-04-30T05:50:29.747Z,9.35
2019-04-30T05:52:59.234Z,9.23
2019-04-30T05:55:29.434Z,9.26
2019-04-30T05:58:01.397Z,9.30
2019-04-30T06:00:30.641Z,9.42
2019-04-30T06:02:59.930Z,9.58
2019-04-30T06:05:30.462Z,9.88
2019-04-30T06:07:59.715Z,9.97
2019-04-30T06:10:43.284Z,10.10
2019-04-30T06:13:25.488Z,10.17
2019-04-30T06:16:00.700Z,10.33
2019-04-30T06:18:29.884Z,10.24
2019-04-30T06:20:59.543Z,10.55
2019-04-30T06:23:29.419Z,10.51
2019-04-30T06:26:06.899Z,10.65
2019-04-30T06:28:29.884Z,10.62
2019-04-30T06:30:59.188Z,10.30
2019-04-30T06:33:29.108Z,10.62
2019-04-30T06:35:59.041Z,10.25
2019-04-30T06:38:29.196Z,10.24
2019-04-30T06:41:00.681Z,9.82
2019-04-30T06:43:30.117Z,9.63
2019-04-30T06:45:59.290Z,9.88
2019-04-30T06:48:30.136Z,9.78
2019-04-30T06:50:59.682Z,9.78
2019-04-30T06:53:29.336Z,9.94
2019-04-30T06:55:58.996Z,9.89
2019-04-30T06:58:29.178Z,10.20
2019-04-30T07:00:59.589Z,10.27
2019-04-30T07:03:29.154Z,10.73
2019-04-30T07:05:58.687Z,10.88
2019-04-30T07:08:59.694Z,10.72
2019-04-30T07:11:32.875Z,11.19
2019-04-30T07:14:02.065Z,11.04
2019-04-30T07:16:33.369Z,10.93
2019-04-30T07:19:02.818Z,10.65
2019-04-30T07:21:36.436Z,10.46
2019-04-30T07:24:02.954Z,11.32
2019-04-30T07:26:33.359Z,11.30
2019-04-30T07:29:03.714Z,11.38
2019-04-30T07:31:32.870Z,11.00
2019-04-30T07:34:02.288Z,10.68
2019-04-30T07:36:45.942Z,10.82
2019-04-30T07:39:02.398Z,10.96
2019-04-30T07:41:31.617Z,10.68
2019-04-30T07:44:01.073Z,11.33
2019-04-30T07:46:35.197Z,11.56
2019-04-30T07:49:02.001Z,11.50
2019-04-30T07:51:37.127Z,11.24
2019-04-30T07:54:02.150Z,10.91
2019-04-30T07:56:37.269Z,11.59
2019-04-30T07:59:02.845Z,11.20
2019-04-30T08:01:32.249Z,10.93
2019-04-30T08:04:20.411Z,11.46
2019-04-30T08:06:49.997Z,11.74
2019-04-30T08:09:22.095Z,12.52
2019-04-30T08:11:50.171Z,12.58
2019-04-30T08:14:21.108Z,12.69
2019-04-30T08:16:51.095Z,12.25
2019-04-30T08:19:20.408Z,12.02
2019-04-30T08:21:49.554Z,12.76
2019-04-30T08:24:19.350Z,12.47
2019-04-30T08:26:49.378Z,12.21
2019-04-30T08:29:19.496Z,12.71
2019-04-30T08:31:49.038Z,12.83
2019-04-30T08:34:20.123Z,12.46
2019-04-30T08:36:49.330Z,12.48
2019-04-30T08:39:19.756Z,11.26
2019-04-30T08:41:49.360Z,11.33
2019-04-30T08:44:20.813Z,12.10
2019-04-30T08:46:49.534Z,12.03
2019-04-30T08:49:19.452Z,12.47
2019-04-30T08:51:50.786Z,12.20
2019-04-30T08:54:20.536Z,11.81
2019-04-30T08:56:50.357Z,12.06
2019-04-30T08:59:19.747Z,11.98
2019-04-30T09:01:48.908Z,11.48
2019-04-30T09:04:20.001Z,12.61
2019-04-30T09:06:49.608Z,12.64
2019-04-30T09:09:20.790Z,13.18
2019-04-30T09:11:55.414Z,12.32
2019-04-30T09:14:21.052Z,12.49
2019-04-30T09:16:51.316Z,11.93
2019-04-30T09:19:21.339Z,11.85
2019-04-30T09:21:50.915Z,11.97
2019-04-30T09:24:20.092Z,12.16
2019-04-30T09:26:49.430Z,11.72
2019-04-30T09:29:19.208Z,12.83
2019-04-30T09:31:49.348Z,12.46
2019-04-30T09:34:21.122Z,12.93
2019-04-30T09:36:49.776Z,13.04
2019-04-30T09:39:19.957Z,12.79
2019-04-30T09:41:49.882Z,13.02
2019-04-30T09:44:19.518Z,13.05
2019-04-30T09:46:48.987Z,12.96
2019-04-30T09:49:19.446Z,11.92
2019-04-30T09:51:49.828Z,12.47
2019-04-30T09:54:20.255Z,12.06
2019-04-30T09:56:52.617Z,11.96
2019-04-30T09:59:20.715Z,11.99
2019-04-30T10:01:51.706Z,11.94
2019-04-30T10:04:21.658Z,11.58
2019-04-30T10:06:51.408Z,12.35
2019-04-30T10:09:20.789Z,12.80
2019-04-30T10:12:21.143Z,12.31
2019-04-30T10:14:50.503Z,12.26
2019-04-30T10:17:54.069Z,13.21
2019-04-30T10:20:29.664Z,12.39
2019-04-30T10:22:59.639Z,12.79
2019-04-30T10:25:28.800Z,12.22
2019-04-30T10:27:59.789Z,12.16
2019-04-30T10:30:34.686Z,12.10
2019-04-30T10:33:03.936Z,12.65
2019-04-30T10:35:33.159Z,13.10
2019-04-30T10:38:02.574Z,12.78
2019-04-30T10:40:31.834Z,12.27
2019-04-30T10:43:00.995Z,12.25
2019-04-30T10:45:30.343Z,12.09
2019-04-30T10:47:59.626Z,12.21
2019-04-30T10:50:28.800Z,12.38
2019-04-30T10:52:59.116Z,13.57
2019-04-30T10:55:28.678Z,13.35
2019-04-30T10:57:59.444Z,13.17
2019-04-30T11:00:38.926Z,12.36
2019-04-30T11:03:19.260Z,12.74
2019-04-30T11:05:41.278Z,13.03
2019-04-30T11:08:10.607Z,12.43
2019-04-30T11:10:40.081Z,12.94
2019-04-30T11:13:09.284Z,13.06
2019-04-30T11:15:40.084Z,12.94
2019-04-30T11:18:09.587Z,13.13
2019-04-30T11:20:39.736Z,13.24
2019-04-30T11:23:14.495Z,13.06
2019-04-30T11:25:41.521Z,13.55
2019-04-30T11:28:11.785Z,14.18
2019-04-30T11:30:41.367Z,13.80
2019-04-30T11:33:11.259Z,13.61
2019-04-30T11:35:40.534Z,14.41
2019-04-30T11:38:09.722Z,13.02
2019-04-30T11:40:39.931Z,12.50
2019-04-30T11:43:09.648Z,12.84
2019-04-30T11:46:08.977Z,13.70
2019-04-30T11:48:38.746Z,13.57
2019-04-30T11:51:09.457Z,13.99
2019-04-30T11:53:39.070Z,14.20
2019-04-30T11:56:08.373Z,13.97
2019-04-30T11:58:38.884Z,14.03
2019-04-30T12:01:10.069Z,14.21
2019-04-30T12:03:39.449Z,14.94
2019-04-30T12:06:10.156Z,14.11
2019-04-30T12:08:56.262Z,14.45
2019-04-30T12:11:31.024Z,14.81
2019-04-30T12:14:00.231Z,14.09
2019-04-30T12:16:29.418Z,14.38
2019-04-30T12:19:00.654Z,15.43
2019-04-30T12:21:29.690Z,15.75
2019-04-30T12:23:58.915Z,16.04
2019-04-30T12:26:28.886Z,16.05
2019-04-30T12:28:58.178Z,16.82
2019-04-30T12:31:27.373Z,16.48
2019-04-30T12:33:56.542Z,15.63
2019-04-30T12:36:25.722Z,16.26
2019-04-30T12:38:54.912Z,15.76
2019-04-30T12:41:24.124Z,16.83
2019-04-30T12:43:53.599Z,15.59
2019-04-30T12:46:22.747Z,15.94
2019-04-30T12:48:57.140Z,15.40
2019-04-30T12:51:48.805Z,16.32
2019-04-30T12:54:33.448Z,17.40
2019-04-30T12:57:24.775Z,19.47
2019-04-30T12:59:53.938Z,17.91
2019-04-30T13:02:23.177Z,16.78
2019-04-30T13:04:52.379Z,17.64
2019-04-30T13:07:23.305Z,16.11
2019-04-30T13:09:53.448Z,17.26
2019-04-30T13:12:23.666Z,19.24
2019-04-30T13:14:54.820Z,20.37
2019-04-30T13:17:24.248Z,20.15
2019-04-30T13:19:53.439Z,18.58
2019-04-30T13:22:22.797Z,19.19
2019-04-30T13:24:52.460Z,18.73
2019-04-30T13:27:22.547Z,19.21
2019-04-30T13:30:02.498Z,17.12
2019-04-30T13:32:36.022Z,19.65
2019-04-30T13:35:05.710Z,18.38
2019-04-30T13:37:44.143Z,20.52
2019-04-30T13:40:32.020Z,21.54
2019-04-30T13:43:02.114Z,18.35
2019-04-30T13:45:31.330Z,18.87
2019-04-30T13:48:00.606Z,18.83
2019-04-30T13:50:31.311Z,20.61
2019-04-30T13:53:00.502Z,20.71
2019-04-30T13:55:42.700Z,20.51
2019-04-30T13:58:02.221Z,19.73
2019-04-30T14:00:31.522Z,19.61
2019-04-30T14:03:10.775Z,20.15
2019-04-30T14:05:39.959Z,19.93
2019-04-30T14:08:17.763Z,21.68
2019-04-30T14:10:49.226Z,20.11
2019-04-30T14:13:18.161Z,18.51
2019-04-30T14:15:48.165Z,20.48
2019-04-30T14:18:27.945Z,20.38
2019-04-30T14:20:48.431Z,19.54
2019-04-30T14:23:19.582Z,19.95
2019-04-30T14:25:56.441Z,20.95
2019-04-30T14:28:19.845Z,20.21
2019-04-30T14:30:49.150Z,21.79
2019-04-30T14:33:25.914Z,21.23
2019-04-30T14:35:49.818Z,23.55
2019-04-30T14:38:19.130Z,21.89
2019-04-30T14:40:50.642Z,20.88
2019-04-30T14:43:30.028Z,21.93
2019-04-30T14:46:24.696Z,18.74
2019-04-30T14:48:59.965Z,18.49
2019-04-30T14:51:28.031Z,18.31
2019-04-30T14:54:22.280Z,20.42
2019-04-30T15:00:06.057Z,22.51
2019-04-30T15:02:42.262Z,22.91
2019-04-30T15:05:11.762Z,20.36
2019-04-30T15:07:40.976Z,19.05
2019-04-30T15:10:10.179Z,19.97
2019-04-30T15:12:39.378Z,21.43
2019-04-30T15:15:09.231Z,23.04
2019-04-30T15:17:39.278Z,23.43
2019-04-30T15:20:10.105Z,23.18
2019-04-30T15:22:41.586Z,24.00
2019-04-30T15:25:12.272Z,21.14
2019-04-30T15:27:45.281Z,23.49
2019-04-30T15:30:13.323Z,23.27
2019-04-30T15:32:44.291Z,23.43
2019-04-30T15:35:13.530Z,23.23
2019-04-30T15:37:44.399Z,22.31
2019-04-30T15:40:13.670Z,19.52
2019-04-30T15:42:44.637Z,21.02
2019-04-30T15:45:15.894Z,20.30
2019-04-30T15:47:45.092Z,21.87
2019-04-30T15:50:14.587Z,21.93
2019-04-30T15:52:43.754Z,20.92
2019-04-30T15:55:13.060Z,22.38
2019-04-30T15:57:59.303Z,21.94
2019-04-30T16:00:31.348Z,20.78
2019-04-30T16:03:09.547Z,21.28
2019-04-30T16:05:41.637Z,22.91
2019-04-30T16:08:33.610Z,21.78
2019-04-30T16:11:20.331Z,20.91
2019-04-30T16:14:20.891Z,21.86
2019-04-30T16:17:09.170Z,19.80
2019-04-30T16:19:38.588Z,21.29
2019-04-30T16:22:07.914Z,21.26
2019-04-30T16:24:38.696Z,20.45
2019-04-30T16:27:09.270Z,18.92
2019-04-30T16:29:40.672Z,20.15
2019-04-30T16:32:09.489Z,21.57
2019-04-30T16:34:38.998Z,21.97
2019-04-30T16:37:08.243Z,22.18
2019-04-30T16:39:37.396Z,20.63
2019-04-30T16:42:06.632Z,21.30
2019-04-30T16:44:35.801Z,20.53
2019-04-30T16:47:13.444Z,20.97
2019-04-30T16:49:35.871Z,19.66
2019-04-30T16:52:05.058Z,19.57
2019-04-30T16:54:34.277Z,18.18
2019-04-30T16:57:06.737Z,17.83
2019-04-30T16:59:39.217Z,19.19
2019-04-30T17:02:09.321Z,18.79
2019-04-30T17:04:55.581Z,17.95
2019-04-30T17:07:38.763Z,17.80
2019-04-30T17:10:18.853Z,18.16
2019-04-30T17:13:01.007Z,18.02
2019-04-30T17:15:31.329Z,17.43
2019-04-30T17:18:00.500Z,17.25
2019-04-30T17:20:29.715Z,18.37
2019-04-30T17:22:59.594Z,17.62
2019-04-30T17:25:28.830Z,17.80
2019-04-30T17:28:01.084Z,18.93
2019-04-30T17:30:29.419Z,18.28
2019-04-30T17:32:59.726Z,17.54
2019-04-30T17:35:29.041Z,17.11
2019-04-30T17:37:58.352Z,16.79
2019-04-30T17:40:29.157Z,16.74
2019-04-30T17:42:58.386Z,16.61
2019-04-30T17:45:29.210Z,17.23
2019-04-30T17:47:58.610Z,16.54
2019-04-30T17:50:29.603Z,16.81
2019-04-30T17:53:00.739Z,16.78
2019-04-30T17:55:30.176Z,16.49
2019-04-30T17:57:59.356Z,16.63
2019-04-30T18:00:30.430Z,15.60
2019-04-30T18:02:59.646Z,15.11
2019-04-30T18:05:29.288Z,15.22
2019-04-30T18:07:58.797Z,15.28
2019-04-30T18:10:28.463Z,14.72
2019-04-30T18:12:57.639Z,14.50
2019-04-30T18:15:28.854Z,14.43
2019-04-30T18:18:07.140Z,14.59
2019-04-30T18:20:41.596Z,14.26
2019-04-30T18:23:40.077Z,14.03
2019-04-30T18:26:13.901Z,14.04
2019-04-30T18:28:44.653Z,13.82
2019-04-30T18:31:13.817Z,13.96
2019-04-30T18:33:42.997Z,13.89
2019-04-30T18:36:12.193Z,13.86
2019-04-30T18:38:41.350Z,13.57
2019-04-30T18:41:10.567Z,13.34
2019-04-30T18:43:40.550Z,13.39
2019-04-30T18:46:10.852Z,13.38
2019-04-30T18:48:40.135Z,13.31
2019-04-30T18:51:23.934Z,13.14
2019-04-30T18:53:40.367Z,13.05
2019-04-30T18:56:14.418Z,12.94
2019-04-30T18:58:43.040Z,12.83
2019-04-30T19:01:11.758Z,12.64
2019-04-30T19:03:40.989Z,12.54
2019-04-30T19:06:22.899Z,12.56
2019-04-30T19:08:52.934Z,12.28
2019-04-30T19:11:33.415Z,12.31
2019-04-30T19:14:24.779Z,12.10
2019-04-30T19:17:29.544Z,11.94
2019-04-30T19:20:21.916Z,12.00
2019-04-30T19:22:52.595Z,11.87
2019-04-30T19:25:22.067Z,11.73
2019-04-30T19:27:51.442Z,11.71
2019-04-30T19:30:22.290Z,11.53
2019-04-30T19:32:52.018Z,11.40
2019-04-30T19:35:22.371Z,11.42
2019-04-30T19:37:51.895Z,11.35
2019-04-30T19:40:21.354Z,11.04
2019-04-30T19:42:50.996Z,11.02
2019-04-30T19:45:20.290Z,10.87
2019-04-30T19:47:52.096Z,10.84
2019-04-30T19:50:21.408Z,10.88
2019-04-30T19:52:51.535Z,10.71
2019-04-30T19:55:20.787Z,10.65
2019-04-30T19:57:54.634Z,10.42
2019-04-30T20:00:23.906Z,10.32
2019-04-30T20:02:53.138Z,10.20
2019-04-30T20:05:23.290Z,10.31
2019-04-30T20:07:52.540Z,10.22
2019-04-30T20:10:22.258Z,10.24
2019-04-30T20:12:52.545Z,10.06
2019-04-30T20:15:24.592Z,10.02
2019-04-30T20:17:53.653Z,9.81
2019-04-30T20:20:23.328Z,9.81
2019-04-30T20:22:53.665Z,9.80
2019-04-30T20:25:24.362Z,9.83
2019-04-30T20:27:53.625Z,9.72
2019-04-30T20:30:22.959Z,9.50
2019-04-30T20:32:52.453Z,9.47
2019-04-30T20:35:23.016Z,9.38
2019-04-30T20:38:31.205Z,9.32
2019-04-30T20:41:03.091Z,9.37
2019-04-30T20:43:31.550Z,9.18
2019-04-30T20:46:01.078Z,9.03
2019-04-30T20:48:30.332Z,9.13
2019-04-30T20:51:01.310Z,8.96
2019-04-30T20:53:30.523Z,8.86
2019-04-30T20:55:59.738Z,8.94
2019-04-30T20:58:30.026Z,8.90
2019-04-30T21:01:03.928Z,8.82
2019-04-30T21:03:29.640Z,8.75
2019-04-30T21:06:00.376Z,8.76
2019-04-30T21:08:28.142Z,8.72
2019-04-30T21:10:56.406Z,8.79
2019-04-30T21:13:24.702Z,8.67
2019-04-30T21:15:54.991Z,8.54
2019-04-30T21:18:22.823Z,8.53
2019-04-30T21:20:51.098Z,8.59
2019-04-30T21:23:19.581Z,8.56
2019-04-30T21:25:48.783Z,8.69
2019-04-30T21:28:17.149Z,8.72
2019-04-30T21:30:46.477Z,8.88
2019-04-30T21:33:31.971Z,8.65
2019-04-30T21:36:14.594Z,8.58
2019-04-30T21:38:43.939Z,8.69
2019-04-30T21:41:13.101Z,8.59
2019-04-30T21:43:42.443Z,8.67
2019-04-30T21:46:11.701Z,8.81
2019-04-30T21:48:40.912Z,8.86
2019-04-30T21:51:10.085Z,8.75
2019-04-30T21:53:39.732Z,8.83
2019-04-30T21:56:10.013Z,8.85
2019-04-30T21:58:39.420Z,8.82
2019-04-30T22:01:21.536Z,8.99
2019-04-30T22:03:50.773Z,8.88
2019-04-30T22:06:20.027Z,9.03
2019-04-30T22:08:49.279Z,9.16
2019-04-30T22:11:19.775Z,9.18
2019-04-30T22:13:49.446Z,9.23
2019-04-30T22:16:20.447Z,9.03
2019-04-30T22:18:49.807Z,9.20
2019-04-30T22:21:19.033Z,9.20
2019-04-30T22:23:48.275Z,9.02
2019-04-30T22:26:17.631Z,8.96
2019-04-30T22:28:46.898Z,8.97
2019-04-30T22:31:16.362Z,9.02
2019-04-30T22:33:45.618Z,8.78
2019-04-30T22:36:34.529Z,8.78
2019-04-30T22:39:14.789Z,8.81
2019-04-30T22:41:43.992Z,8.85
2019-04-30T22:44:13.299Z,9.04
2019-04-30T22:46:42.572Z,9.18
2019-04-30T22:49:11.829Z,8.78
2019-04-30T22:51:41.061Z,8.59
2019-04-30T22:54:10.284Z,8.64
2019-04-30T22:56:39.508Z,8.62
2019-04-30T22:59:08.717Z,8.61
2019-04-30T23:01:53.331Z,8.50
2019-04-30T23:04:30.879Z,8.47
2019-04-30T23:07:00.450Z,8.73
2019-04-30T23:09:29.673Z,8.81
2019-04-30T23:11:58.890Z,8.64
2019-04-30T23:14:28.273Z,8.59
2019-04-30T23:16:57.700Z,8.61
2019-04-30T23:19:26.939Z,8.59
2019-04-30T23:21:56.442Z,8.34
2019-04-30T23:24:25.795Z,8.44
2019-04-30T23:26:55.065Z,8.55
2019-04-30T23:29:24.475Z,8.45
2019-04-30T23:31:53.703Z,8.49
2019-04-30T23:34:22.959Z,8.51
2019-04-30T23:36:52.152Z,8.44
2019-04-30T23:39:21.409Z,8.39
2019-04-30T23:41:50.664Z,8.33
2019-04-30T23:44:19.898Z,8.35
2019-04-30T23:46:49.189Z,8.23
2019-04-30T23:49:18.433Z,8.31
2019-04-30T23:51:50.427Z,8.34
2019-04-30T23:54:20.293Z,8.31
2019-04-30T23:56:49.634Z,8.30
2019-04-30T23:59:18.982Z,8.34
